Time;durP1;ratioP1;P1;durP2;ratioP2;P2;SDS_P1;SDS_P2;PMS_P1;PMS_P2;Temp;Humidity;BMP_temperature;BMP_pressure;BME280_temperature;BME280_humidity;BME280_pressure;Samples;Min_cycle;Max_cycle;Signal;HPM_P1;HPM_P2
2021/06/16 00:00:07;;;;;;;28.92;16.40;;;;;;;;;;5069614;28;20685;-57
2021/06/16 00:02:58;;;;;;;29.23;17.63;;;;;;;;;;5071248;28;20082;-57
2021/06/16 00:05:26;;;;;;;33.90;18.85;;;;;;;;;;5071040;28;20044;-57
2021/06/16 00:07:52;;;;;;;32.33;18.67;;;;;;;;;;5071259;28;20407;-57
2021/06/16 00:10:22;;;;;;;35.95;19.05;;;;;;;;;;5055155;28;20454;-57
2021/06/16 00:12:48;;;;;;;36.55;18.38;;;;;;;;;;5067693;28;20114;-57
2021/06/16 00:15:19;;;;;;;33.17;18.38;;;;;;;;;;5071328;28;20045;-57
2021/06/16 00:17:45;;;;;;;34.33;19.02;;;;;;;;;;5070886;28;20033;-57
2021/06/16 00:20:12;;;;;;;33.50;17.85;;;;;;;;;;5068461;28;20557;-56
2021/06/16 00:22:39;;;;;;;31.88;18.08;;;;;;;;;;5057638;28;20068;-57
2021/06/16 00:25:06;;;;;;;35.63;18.88;;;;;;;;;;5071168;28;20044;-57
2021/06/16 00:27:32;;;;;;;30.23;17.80;;;;;;;;;;5055762;28;20124;-57
2021/06/16 00:29:59;;;;;;;28.65;17.33;;;;;;;;;;5066683;28;20048;-57
2021/06/16 00:32:26;;;;;;;28.33;17.38;;;;;;;;;;5061977;28;20083;-56
2021/06/16 00:34:52;;;;;;;31.98;18.35;;;;;;;;;;5059537;28;20040;-57
2021/06/16 00:37:19;;;;;;;33.70;17.08;;;;;;;;;;5054961;28;20102;-57
2021/06/16 00:39:45;;;;;;;28.25;18.17;;;;;;;;;;5071555;28;20064;-57
2021/06/16 00:42:11;;;;;;;36.72;17.95;;;;;;;;;;5070389;28;20075;-56
2021/06/16 00:44:38;;;;;;;33.75;18.17;;;;;;;;;;5070508;28;20048;-57
2021/06/16 00:47:04;;;;;;;26.60;16.05;;;;;;;;;;5070910;28;20048;-57
2021/06/16 00:49:30;;;;;;;28.45;17.27;;;;;;;;;;5070920;28;20040;-57
2021/06/16 00:51:57;;;;;;;28.80;17.17;;;;;;;;;;5071037;28;20044;-56
2021/06/16 00:54:23;;;;;;;29.33;17.60;;;;;;;;;;5070558;28;20068;-57
2021/06/16 00:56:49;;;;;;;30.52;16.92;;;;;;;;;;5061849;28;20120;-57
2021/06/16 00:59:16;;;;;;;35.00;17.45;;;;;;;;;;5059762;28;20075;-57
2021/06/16 01:01:44;;;;;;;29.20;17.23;;;;;;;;;;5058274;28;20044;-57
2021/06/16 01:04:15;;;;;;;24.30;16.13;;;;;;;;;;5071150;28;20061;-56
2021/06/16 01:06:43;;;;;;;26.58;16.45;;;;;;;;;;5073496;28;20049;-57
2021/06/16 01:09:16;;;;;;;33.80;17.63;;;;;;;;;;5074730;28;20045;-57
2021/06/16 01:11:55;;;;;;;35.95;18.30;;;;;;;;;;5074271;28;20072;-57
2021/06/16 01:14:24;;;;;;;28.13;17.40;;;;;;;;;;5069538;28;20047;-56
2021/06/16 01:16:52;;;;;;;29.40;16.42;;;;;;;;;;5062675;28;20119;-56
2021/06/16 01:19:30;;;;;;;37.88;18.13;;;;;;;;;;5058403;28;20048;-56
2021/06/16 01:22:00;;;;;;;27.60;18.10;;;;;;;;;;5071856;28;20500;-56
2021/06/16 01:24:27;;;;;;;31.55;19.05;;;;;;;;;;5074465;28;20552;-57
2021/06/16 01:26:56;;;;;;;27.60;16.27;;;;;;;;;;5074307;28;20116;-57
2021/06/16 01:29:29;;;;;;;29.83;18.63;;;;;;;;;;5074235;28;20068;-57
2021/06/16 01:31:56;;;;;;;29.05;17.85;;;;;;;;;;5074383;28;20052;-57
2021/06/16 01:34:22;;;;;;;28.92;16.35;;;;;;;;;;5074361;28;20045;-57
2021/06/16 01:36:50;;;;;;;32.60;17.77;;;;;;;;;;5075092;28;20443;-56
2021/06/16 01:39:18;;;;;;;29.65;16.45;;;;;;;;;;5072121;28;20053;-57
2021/06/16 01:41:45;;;;;;;25.17;15.90;;;;;;;;;;5069996;28;20098;-57
2021/06/16 01:44:12;;;;;;;31.35;17.40;;;;;;;;;;5073937;28;20154;-57
2021/06/16 01:46:39;;;;;;;29.00;16.20;;;;;;;;;;5073771;28;20054;-57
2021/06/16 01:49:05;;;;;;;27.35;16.58;;;;;;;;;;5058045;28;20048;-57
2021/06/16 01:51:32;;;;;;;28.42;15.65;;;;;;;;;;5059159;28;20071;-57
2021/06/16 01:53:59;;;;;;;25.80;14.85;;;;;;;;;;5061018;28;20125;-57
2021/06/16 01:56:27;;;;;;;24.20;14.95;;;;;;;;;;5066904;28;20047;-56
2021/06/16 01:58:54;;;;;;;24.58;13.55;;;;;;;;;;5073759;28;20408;-57
2021/06/16 02:01:22;;;;;;;23.45;15.18;;;;;;;;;;5057961;28;20124;-57
2021/06/16 02:03:48;;;;;;;23.95;16.23;;;;;;;;;;5070613;28;20048;-57
2021/06/16 02:06:18;;;;;;;29.38;16.52;;;;;;;;;;5073504;28;20060;-57
2021/06/16 02:08:46;;;;;;;30.05;17.90;;;;;;;;;;5073321;28;20044;-56
2021/06/16 02:11:13;;;;;;;29.33;18.33;;;;;;;;;;5073697;28;20049;-57
2021/06/16 02:13:41;;;;;;;25.42;16.13;;;;;;;;;;5073612;28;20073;-57
2021/06/16 02:16:09;;;;;;;28.52;17.25;;;;;;;;;;5073506;28;20044;-57
2021/06/16 02:18:41;;;;;;;32.00;17.17;;;;;;;;;;5059522;28;20432;-57
2021/06/16 02:21:08;;;;;;;30.10;17.00;;;;;;;;;;5072162;28;20523;-56
2021/06/16 02:23:34;;;;;;;26.85;15.55;;;;;;;;;;5073100;28;20124;-57
2021/06/16 02:26:00;;;;;;;25.65;15.48;;;;;;;;;;5073349;28;20048;-57
2021/06/16 02:28:27;;;;;;;22.48;14.15;;;;;;;;;;5073187;28;20076;-57
2021/06/16 02:30:53;;;;;;;24.13;13.80;;;;;;;;;;5073722;28;20045;-57
2021/06/16 02:33:19;;;;;;;23.52;12.93;;;;;;;;;;5061443;28;20045;-57
2021/06/16 02:35:45;;;;;;;16.73;11.40;;;;;;;;;;5068824;28;20102;-57
2021/06/16 02:38:13;;;;;;;20.38;12.57;;;;;;;;;;5072694;28;20122;-57
2021/06/16 02:40:40;;;;;;;22.00;12.23;;;;;;;;;;5073060;28;20118;-57
2021/06/16 02:43:07;;;;;;;20.92;11.70;;;;;;;;;;5072951;28;20557;-57
2021/06/16 02:45:35;;;;;;;18.80;11.00;;;;;;;;;;5073572;28;20063;-57
2021/06/16 02:48:02;;;;;;;15.73;9.88;;;;;;;;;;5072698;28;20127;-57
2021/06/16 02:50:30;;;;;;;16.15;9.50;;;;;;;;;;5072761;28;20460;-56
2021/06/16 02:53:00;;;;;;;14.93;7.97;;;;;;;;;;5105006;28;20055;-57
2021/06/16 02:55:27;;;;;;;15.88;8.70;;;;;;;;;;5072723;28;20098;-57
2021/06/16 02:57:54;;;;;;;11.93;7.68;;;;;;;;;;5056904;28;20075;-56
2021/06/16 03:00:21;;;;;;;18.65;8.38;;;;;;;;;;5060844;28;20045;-57
2021/06/16 03:02:48;;;;;;;12.07;7.50;;;;;;;;;;5068587;28;20067;-57
2021/06/16 03:05:22;;;;;;;16.38;9.43;;;;;;;;;;5071331;28;20956;-57
2021/06/16 03:07:50;;;;;;;13.93;7.78;;;;;;;;;;5072321;28;20063;-57
2021/06/16 03:10:17;;;;;;;11.98;7.28;;;;;;;;;;5071553;28;20554;-57
2021/06/16 03:12:44;;;;;;;11.82;7.38;;;;;;;;;;5056044;28;20492;-56
2021/06/16 03:15:11;;;;;;;15.10;7.15;;;;;;;;;;5070867;28;20055;-56
2021/06/16 03:17:38;;;;;;;10.77;7.13;;;;;;;;;;5071804;28;20162;-57
2021/06/16 03:20:05;;;;;;;15.07;6.45;;;;;;;;;;5071564;28;20044;-57
2021/06/16 03:22:32;;;;;;;10.45;7.35;;;;;;;;;;5071700;28;20048;-57
2021/06/16 03:25:00;;;;;;;10.18;6.32;;;;;;;;;;5072082;28;20068;-57
2021/06/16 03:27:26;;;;;;;10.13;5.70;;;;;;;;;;5071992;28;20097;-56
2021/06/16 03:29:53;;;;;;;9.68;6.57;;;;;;;;;;5061248;28;20436;-57
2021/06/16 03:32:21;;;;;;;8.90;6.30;;;;;;;;;;5063803;28;20122;-57
2021/06/16 03:34:47;;;;;;;10.75;6.38;;;;;;;;;;5071319;28;20040;-56
2021/06/16 03:37:14;;;;;;;7.93;5.90;;;;;;;;;;5055726;28;20060;-57
2021/06/16 03:39:40;;;;;;;12.65;5.95;;;;;;;;;;5072766;28;20060;-57
2021/06/16 03:42:07;;;;;;;11.70;5.82;;;;;;;;;;5071856;28;20450;-56
2021/06/16 03:44:35;;;;;;;10.60;4.57;;;;;;;;;;5071786;28;20040;-56
2021/06/16 03:47:02;;;;;;;11.93;5.40;;;;;;;;;;5071761;28;20466;-57
2021/06/16 03:49:29;;;;;;;9.23;4.82;;;;;;;;;;5071482;28;20036;-57
2021/06/16 03:51:56;;;;;;;10.10;4.13;;;;;;;;;;5056099;28;20055;-57
2021/06/16 03:54:23;;;;;;;9.35;4.30;;;;;;;;;;5072365;28;20076;-57
2021/06/16 03:56:49;;;;;;;5.70;4.00;;;;;;;;;;5070160;28;20131;-57
2021/06/16 03:59:16;;;;;;;7.78;3.67;;;;;;;;;;5064238;28;20098;-57
2021/06/16 04:01:42;;;;;;;5.82;3.45;;;;;;;;;;5071789;28;20445;-57
2021/06/16 04:04:09;;;;;;;4.82;3.58;;;;;;;;;;5069883;28;20123;-57
2021/06/16 04:06:36;;;;;;;7.05;3.55;;;;;;;;;;5062759;28;20151;-57
2021/06/16 04:09:04;;;;;;;8.98;4.88;;;;;;;;;;5071401;28;20087;-56
2021/06/16 04:11:31;;;;;;;4.85;3.67;;;;;;;;;;5067261;28;20040;-57
2021/06/16 04:13:57;;;;;;;5.25;3.50;;;;;;;;;;5066228;28;20550;-57
2021/06/16 04:16:27;;;;;;;4.85;3.33;;;;;;;;;;5058298;28;20040;-57
2021/06/16 04:18:53;;;;;;;6.28;3.55;;;;;;;;;;5060107;28;20381;-57
2021/06/16 04:21:20;;;;;;;7.32;3.78;;;;;;;;;;5058618;28;20534;-57
2021/06/16 04:23:48;;;;;;;7.25;3.50;;;;;;;;;;5065226;28;20049;-57
2021/06/16 04:26:15;;;;;;;7.70;3.78;;;;;;;;;;5065762;28;20060;-57
2021/06/16 04:28:41;;;;;;;6.35;3.67;;;;;;;;;;5066266;28;20045;-57
2021/06/16 04:31:08;;;;;;;4.40;3.13;;;;;;;;;;5069425;28;20103;-57
2021/06/16 04:33:34;;;;;;;7.53;3.35;;;;;;;;;;5057562;28;20136;-57
2021/06/16 04:36:03;;;;;;;8.43;3.10;;;;;;;;;;5065834;28;20064;-57
2021/06/16 04:38:30;;;;;;;7.28;3.05;;;;;;;;;;5059716;28;20071;-56
2021/06/16 04:40:56;;;;;;;8.00;3.67;;;;;;;;;;5063527;28;20056;-57
2021/06/16 04:43:23;;;;;;;6.07;3.63;;;;;;;;;;5070903;28;20045;-57
2021/06/16 04:45:49;;;;;;;5.05;3.10;;;;;;;;;;5074645;28;20059;-56
2021/06/16 04:48:16;;;;;;;5.57;3.15;;;;;;;;;;5070456;28;20032;-57
2021/06/16 04:50:42;;;;;;;5.22;3.33;;;;;;;;;;5072601;28;20055;-57
2021/06/16 04:53:08;;;;;;;8.95;3.47;;;;;;;;;;5072247;28;20045;-56
2021/06/16 04:55:35;;;;;;;7.18;3.15;;;;;;;;;;5070829;28;20043;-57
2021/06/16 04:58:01;;;;;;;6.65;2.90;;;;;;;;;;5073602;28;20041;-57
2021/06/16 05:00:27;;;;;;;6.88;3.40;;;;;;;;;;5072383;28;20056;-57
2021/06/16 05:02:59;;;;;;;8.80;3.50;;;;;;;;;;5070686;28;20088;-57
2021/06/16 05:05:26;;;;;;;7.90;3.03;;;;;;;;;;5071298;28;20079;-57
2021/06/16 05:07:52;;;;;;;5.60;3.10;;;;;;;;;;5070531;28;20060;-57
2021/06/16 05:10:19;;;;;;;11.75;3.08;;;;;;;;;;5068221;28;20044;-57
2021/06/16 05:12:45;;;;;;;5.30;3.20;;;;;;;;;;5073491;28;20123;-57
2021/06/16 05:15:12;;;;;;;5.95;2.85;;;;;;;;;;5068898;28;20068;-57
2021/06/16 05:17:39;;;;;;;4.63;2.95;;;;;;;;;;5066152;28;20052;-57
2021/06/16 05:20:06;;;;;;;4.68;2.70;;;;;;;;;;5070157;28;20484;-57
2021/06/16 05:22:33;;;;;;;9.90;3.45;;;;;;;;;;5070417;28;20487;-57
2021/06/16 05:25:01;;;;;;;4.70;2.88;;;;;;;;;;5070330;28;21104;-57
2021/06/16 05:27:27;;;;;;;6.15;3.00;;;;;;;;;;5068394;28;20094;-57
2021/06/16 05:29:54;;;;;;;6.07;2.78;;;;;;;;;;5096798;28;20060;-57
2021/06/16 05:32:20;;;;;;;6.25;3.35;;;;;;;;;;5071283;28;20056;-57
2021/06/16 05:34:46;;;;;;;7.88;2.90;;;;;;;;;;5070121;28;20055;-57
2021/06/16 05:37:13;;;;;;;6.75;2.92;;;;;;;;;;5072162;28;20083;-57
2021/06/16 05:39:40;;;;;;;7.18;2.78;;;;;;;;;;5073632;28;20051;-57
2021/06/16 05:42:06;;;;;;;9.73;3.53;;;;;;;;;;5071311;28;20048;-57
2021/06/16 05:44:33;;;;;;;5.43;2.85;;;;;;;;;;5066749;28;20528;-57
2021/06/16 05:46:59;;;;;;;4.63;2.90;;;;;;;;;;5069236;28;20056;-57
2021/06/16 05:49:26;;;;;;;5.72;2.88;;;;;;;;;;5070140;28;20041;-57
2021/06/16 05:51:52;;;;;;;11.90;2.75;;;;;;;;;;5073931;28;20072;-57
2021/06/16 05:54:19;;;;;;;8.35;2.70;;;;;;;;;;5069509;28;20834;-56
2021/06/16 05:56:45;;;;;;;10.57;3.75;;;;;;;;;;5067453;28;20078;-57
2021/06/16 05:59:12;;;;;;;13.27;3.95;;;;;;;;;;5071670;28;20072;-57
2021/06/16 06:01:38;;;;;;;16.63;3.63;;;;;;;;;;5071219;28;20052;-57
2021/06/16 06:04:08;;;;;;;6.10;2.75;;;;;;;;;;5071208;28;20059;-57
2021/06/16 06:06:35;;;;;;;7.45;3.10;;;;;;;;;;5086072;28;20060;-57
2021/06/16 06:09:02;;;;;;;7.85;3.08;;;;;;;;;;5069168;28;20045;-57
2021/06/16 06:11:29;;;;;;;10.73;2.92;;;;;;;;;;5067505;28;20056;-57
2021/06/16 06:13:55;;;;;;;8.35;2.50;;;;;;;;;;5067913;28;20088;-57
2021/06/16 06:16:21;;;;;;;13.43;2.63;;;;;;;;;;5069128;28;20049;-56
2021/06/16 06:18:48;;;;;;;7.65;2.67;;;;;;;;;;5073116;28;20040;-57
2021/06/16 06:21:15;;;;;;;7.70;2.85;;;;;;;;;;5068573;28;20079;-57
2021/06/16 06:23:41;;;;;;;6.82;2.00;;;;;;;;;;5069981;28;20044;-57
2021/06/16 06:26:07;;;;;;;8.25;2.95;;;;;;;;;;5067522;28;20071;-57
2021/06/16 06:28:34;;;;;;;5.25;2.38;;;;;;;;;;5066988;28;20060;-57
2021/06/16 06:31:00;;;;;;;7.00;2.50;;;;;;;;;;5071078;28;20056;-57
2021/06/16 06:33:26;;;;;;;10.30;2.35;;;;;;;;;;5071950;28;20049;-57
2021/06/16 06:35:52;;;;;;;8.63;2.63;;;;;;;;;;5068289;28;20040;-57
2021/06/16 06:38:19;;;;;;;6.47;2.20;;;;;;;;;;5070938;28;20059;-57
2021/06/16 06:40:45;;;;;;;9.95;2.70;;;;;;;;;;5069332;28;20127;-57
2021/06/16 06:43:12;;;;;;;4.47;2.00;;;;;;;;;;5070871;28;20060;-58
2021/06/16 06:45:38;;;;;;;8.43;2.22;;;;;;;;;;5070861;28;20415;-57
2021/06/16 06:48:04;;;;;;;6.57;2.38;;;;;;;;;;5068693;28;20062;-57
2021/06/16 06:50:31;;;;;;;23.67;3.33;;;;;;;;;;5071071;28;20068;-58
2021/06/16 06:52:57;;;;;;;9.57;2.38;;;;;;;;;;5070895;28;20117;-57
2021/06/16 06:55:23;;;;;;;5.90;2.17;;;;;;;;;;5069572;28;20044;-57
2021/06/16 06:57:50;;;;;;;5.97;2.65;;;;;;;;;;5072629;28;20087;-57
2021/06/16 07:00:16;;;;;;;6.78;2.67;;;;;;;;;;5071858;28;20118;-57
2021/06/16 07:02:43;;;;;;;7.03;2.70;;;;;;;;;;5071839;28;20028;-56
2021/06/16 07:05:11;;;;;;;3.88;2.38;;;;;;;;;;5071882;28;20044;-57
2021/06/16 07:07:37;;;;;;;7.93;2.92;;;;;;;;;;5071473;28;20048;-57
2021/06/16 07:10:04;;;;;;;9.23;2.60;;;;;;;;;;5071625;28;20074;-57
2021/06/16 07:12:30;;;;;;;8.27;3.10;;;;;;;;;;5070488;28;20044;-58
2021/06/16 07:14:56;;;;;;;8.15;2.72;;;;;;;;;;5067068;28;20484;-56
2021/06/16 07:17:23;;;;;;;10.82;2.20;;;;;;;;;;5064281;28;20044;-57
2021/06/16 07:19:50;;;;;;;8.18;3.03;;;;;;;;;;5071305;28;20055;-57
2021/06/16 07:22:16;;;;;;;8.00;2.65;;;;;;;;;;5071745;28;20044;-57
2021/06/16 07:24:43;;;;;;;5.25;2.20;;;;;;;;;;5072235;28;20048;-57
2021/06/16 07:27:10;;;;;;;7.15;2.35;;;;;;;;;;5071085;28;20085;-57
2021/06/16 07:29:37;;;;;;;11.25;2.42;;;;;;;;;;5065681;28;20045;-57
2021/06/16 07:32:03;;;;;;;8.40;2.70;;;;;;;;;;5061092;28;20052;-58
2021/06/16 07:34:30;;;;;;;6.55;2.30;;;;;;;;;;5071508;28;20411;-57
2021/06/16 07:36:57;;;;;;;33.65;3.78;;;;;;;;;;5071647;28;20036;-57
2021/06/16 07:39:23;;;;;;;7.07;2.63;;;;;;;;;;5071939;28;20041;-57
2021/06/16 07:41:49;;;;;;;7.10;2.05;;;;;;;;;;5071396;28;20094;-57
2021/06/16 07:44:16;;;;;;;3.53;1.80;;;;;;;;;;5069841;28;20045;-57
2021/06/16 07:46:42;;;;;;;10.23;2.22;;;;;;;;;;5070689;28;20048;-57
2021/06/16 07:49:09;;;;;;;6.93;2.30;;;;;;;;;;5071348;28;20044;-57
2021/06/16 07:51:35;;;;;;;4.50;2.10;;;;;;;;;;5071958;28;20102;-57
2021/06/16 07:54:01;;;;;;;7.43;2.05;;;;;;;;;;5071437;28;20047;-57
2021/06/16 07:56:28;;;;;;;14.57;3.15;;;;;;;;;;5069349;28;20149;-57
2021/06/16 07:58:54;;;;;;;8.20;2.00;;;;;;;;;;5071231;28;20423;-57
2021/06/16 08:01:21;;;;;;;7.60;1.90;;;;;;;;;;5055020;28;20484;-58
2021/06/16 08:03:47;;;;;;;8.88;2.28;;;;;;;;;;5071775;28;20405;-57
2021/06/16 08:06:13;;;;;;;6.13;2.15;;;;;;;;;;5069715;28;20056;-57
2021/06/16 08:08:40;;;;;;;6.82;1.83;;;;;;;;;;5065272;28;20131;-56
2021/06/16 08:11:06;;;;;;;6.38;2.20;;;;;;;;;;5061052;28;20060;-58
2021/06/16 08:13:32;;;;;;;9.57;2.33;;;;;;;;;;5070852;28;20060;-57
2021/06/16 08:15:59;;;;;;;6.95;3.63;;;;;;;;;;5071960;28;20199;-57
2021/06/16 08:18:25;;;;;;;5.47;2.40;;;;;;;;;;5074579;28;20095;-57
2021/06/16 08:20:52;;;;;;;6.47;1.83;;;;;;;;;;5073764;28;20044;-58
2021/06/16 08:23:18;;;;;;;6.43;2.85;;;;;;;;;;5075104;28;20109;-57
2021/06/16 08:25:45;;;;;;;9.57;3.05;;;;;;;;;;5074622;28;20048;-57
2021/06/16 08:28:11;;;;;;;6.70;2.58;;;;;;;;;;5074768;28;20041;-57
2021/06/16 08:30:37;;;;;;;5.57;2.47;;;;;;;;;;5075671;28;20075;-57
2021/06/16 08:33:04;;;;;;;4.90;2.53;;;;;;;;;;5065058;28;20103;-57
2021/06/16 08:35:31;;;;;;;9.05;2.72;;;;;;;;;;5068202;28;20484;-57
2021/06/16 08:37:57;;;;;;;7.63;2.45;;;;;;;;;;5073534;28;20051;-57
2021/06/16 08:40:24;;;;;;;5.63;2.17;;;;;;;;;;5074254;28;20143;-58
2021/06/16 08:42:50;;;;;;;7.80;2.00;;;;;;;;;;5074162;28;20052;-57
2021/06/16 08:45:17;;;;;;;6.25;2.00;;;;;;;;;;5074053;28;20121;-57
2021/06/16 08:47:47;;;;;;;4.20;2.05;;;;;;;;;;5073160;28;20056;-58
2021/06/16 08:50:14;;;;;;;6.57;1.95;;;;;;;;;;5074774;28;20040;-58
2021/06/16 08:52:40;;;;;;;9.25;2.60;;;;;;;;;;5074737;28;20051;-57
2021/06/16 08:55:08;;;;;;;6.20;2.03;;;;;;;;;;5074496;28;20618;-57
2021/06/16 08:57:35;;;;;;;4.35;1.90;;;;;;;;;;5059694;28;20052;-57
2021/06/16 09:00:03;;;;;;;6.40;2.25;;;;;;;;;;5072169;28;20093;-57
2021/06/16 09:02:30;;;;;;;8.73;2.85;;;;;;;;;;5074432;28;20155;-57
2021/06/16 09:04:56;;;;;;;6.15;2.30;;;;;;;;;;5074357;28;20122;-57
2021/06/16 09:07:24;;;;;;;8.48;2.67;;;;;;;;;;5074773;28;20052;-57
2021/06/16 09:10:08;;;;;;;9.15;2.42;;;;;;;;;;5071374;28;20052;-57
2021/06/16 09:12:36;;;;;;;5.83;2.07;;;;;;;;;;5089249;28;20045;-57
2021/06/16 09:15:09;;;;;;;5.35;1.80;;;;;;;;;;5074394;28;20510;-58
2021/06/16 09:17:36;;;;;;;5.88;1.98;;;;;;;;;;5074002;28;20039;-57
2021/06/16 09:20:02;;;;;;;3.17;1.90;;;;;;;;;;5074363;28;20051;-57
2021/06/16 09:22:28;;;;;;;12.45;2.45;;;;;;;;;;5074350;28;20052;-57
2021/06/16 09:24:56;;;;;;;9.50;2.28;;;;;;;;;;5074468;28;20049;-58
2021/06/16 09:27:41;;;;;;;5.03;2.25;;;;;;;;;;5062359;28;20580;-57
2021/06/16 09:30:19;;;;;;;5.38;1.80;;;;;;;;;;5072609;28;20068;-57
2021/06/16 09:32:48;;;;;;;5.25;1.92;;;;;;;;;;5074156;28;20115;-57
2021/06/16 09:35:28;;;;;;;3.45;1.80;;;;;;;;;;5074228;28;20095;-57
2021/06/16 09:37:55;;;;;;;8.10;2.65;;;;;;;;;;5073402;28;20044;-57
2021/06/16 09:40:40;;;;;;;6.40;3.33;;;;;;;;;;5057709;28;20052;-57
2021/06/16 09:43:10;;;;;;;4.78;2.50;;;;;;;;;;5071958;28;20506;-58
2021/06/16 09:45:37;;;;;;;4.60;2.17;;;;;;;;;;5058800;28;20512;-58
2021/06/16 09:48:20;;;;;;;6.55;2.00;;;;;;;;;;5071842;28;20419;-57
2021/06/16 09:50:47;;;;;;;5.32;2.10;;;;;;;;;;5073755;28;20068;-58
2021/06/16 09:53:14;;;;;;;5.93;2.65;;;;;;;;;;5073454;28;20443;-58
2021/06/16 09:55:40;;;;;;;7.95;2.40;;;;;;;;;;5073772;28;20048;-59
2021/06/16 09:58:09;;;;;;;4.82;2.50;;;;;;;;;;5073565;28;20117;-58
2021/06/16 10:00:35;;;;;;;16.30;2.88;;;;;;;;;;5088055;28;20055;-58
2021/06/16 10:03:12;;;;;;;4.82;2.53;;;;;;;;;;5073446;28;20113;-58
2021/06/16 10:05:57;;;;;;;6.82;2.63;;;;;;;;;;5067562;28;20049;-58
2021/06/16 10:08:24;;;;;;;9.48;3.38;;;;;;;;;;5065634;28;20432;-58
2021/06/16 10:10:51;;;;;;;9.73;3.22;;;;;;;;;;5073697;28;20044;-58
2021/06/16 10:13:21;;;;;;;8.70;2.90;;;;;;;;;;5072147;28;20064;-58
2021/06/16 10:15:47;;;;;;;4.50;2.53;;;;;;;;;;5074324;28;20094;-58
2021/06/16 10:18:14;;;;;;;5.38;2.65;;;;;;;;;;5071945;28;20153;-58
2021/06/16 10:20:40;;;;;;;5.53;2.95;;;;;;;;;;5066811;28;20073;-59
2021/06/16 10:23:07;;;;;;;5.88;2.90;;;;;;;;;;5063185;28;20044;-58
2021/06/16 10:25:33;;;;;;;3.55;2.60;;;;;;;;;;5073229;28;20504;-58
2021/06/16 10:28:00;;;;;;;4.03;2.30;;;;;;;;;;5073357;28;20127;-58
2021/06/16 10:30:29;;;;;;;6.03;3.10;;;;;;;;;;5072614;28;20094;-58
2021/06/16 10:32:56;;;;;;;6.00;3.58;;;;;;;;;;5072896;28;20110;-58
2021/06/16 10:35:23;;;;;;;4.18;2.50;;;;;;;;;;5072490;28;20051;-58
2021/06/16 10:37:49;;;;;;;5.82;3.40;;;;;;;;;;5073099;28;20121;-58
2021/06/16 10:40:19;;;;;;;7.07;3.72;;;;;;;;;;5071991;28;20076;-58
2021/06/16 10:43:09;;;;;;;5.68;3.35;;;;;;;;;;5073111;28;20393;-58
2021/06/16 10:45:36;;;;;;;10.98;3.58;;;;;;;;;;5071603;28;20061;-58
2021/06/16 10:48:04;;;;;;;10.00;3.58;;;;;;;;;;5072585;28;20053;-58
2021/06/16 10:50:52;;;;;;;7.13;3.17;;;;;;;;;;5072498;28;20033;-58
2021/06/16 10:53:20;;;;;;;15.00;4.22;;;;;;;;;;5072580;28;20049;-58
2021/06/16 10:56:06;;;;;;;13.10;4.05;;;;;;;;;;5072681;28;20041;-58
2021/06/16 10:58:34;;;;;;;8.77;3.80;;;;;;;;;;5058216;28;20087;-58
2021/06/16 11:01:19;;;;;;;6.70;3.00;;;;;;;;;;5071695;28;20052;-59
2021/06/16 11:04:01;;;;;;;7.38;3.10;;;;;;;;;;5073390;28;20072;-59
2021/06/16 11:06:37;;;;;;;8.35;2.88;;;;;;;;;;5072127;28;20045;-59
2021/06/16 11:09:09;;;;;;;7.13;3.03;;;;;;;;;;5072412;28;20044;-59
2021/06/16 11:14:33;;;;;;;6.95;3.30;;;;;;;;;;5072110;28;20389;-58
2021/06/16 11:17:00;;;;;;;6.07;3.05;;;;;;;;;;5071703;28;20045;-59
2021/06/16 11:19:27;;;;;;;5.13;3.60;;;;;;;;;;5072034;28;20442;-59
2021/06/16 11:21:55;;;;;;;5.20;3.10;;;;;;;;;;5071641;28;20098;-58
2021/06/16 11:24:21;;;;;;;10.48;3.20;;;;;;;;;;5072164;28;20044;-59
2021/06/16 11:26:48;;;;;;;5.30;3.35;;;;;;;;;;5070628;28;20492;-58
2021/06/16 11:29:33;;;;;;;6.05;3.67;;;;;;;;;;5071989;28;20040;-59
2021/06/16 11:32:15;;;;;;;4.80;3.67;;;;;;;;;;5104543;28;20424;-58
2021/06/16 11:34:51;;;;;;;5.82;3.08;;;;;;;;;;5068199;28;20048;-59
2021/06/16 11:37:36;;;;;;;6.18;3.28;;;;;;;;;;5062301;28;20052;-59
2021/06/16 11:40:04;;;;;;;5.35;2.80;;;;;;;;;;5065200;28;20098;-58
2021/06/16 11:42:30;;;;;;;11.60;3.72;;;;;;;;;;5066706;28;20044;-58
2021/06/16 11:44:57;;;;;;;5.43;3.22;;;;;;;;;;5060521;28;20107;-59
2021/06/16 11:47:25;;;;;;;7.53;4.00;;;;;;;;;;5063421;28;20036;-59
2021/06/16 11:50:00;;;;;;;5.45;3.42;;;;;;;;;;5062208;28;20080;-59
2021/06/16 11:52:26;;;;;;;9.15;3.80;;;;;;;;;;5054272;28;20116;-58
2021/06/16 11:54:52;;;;;;;7.88;3.65;;;;;;;;;;5059564;28;20068;-59
2021/06/16 11:57:19;;;;;;;5.95;3.83;;;;;;;;;;5071836;28;20044;-59
2021/06/16 11:59:47;;;;;;;7.68;3.60;;;;;;;;;;5071223;28;20048;-58
2021/06/16 12:02:19;;;;;;;5.72;3.30;;;;;;;;;;5069035;28;20083;-59
2021/06/16 12:04:50;;;;;;;8.60;3.38;;;;;;;;;;5058811;28;20067;-58
2021/06/16 12:07:27;;;;;;;7.82;3.35;;;;;;;;;;5071367;28;20072;-59
2021/06/16 12:09:58;;;;;;;3.88;3.25;;;;;;;;;;5068174;28;20132;-59
2021/06/16 12:12:25;;;;;;;10.27;4.18;;;;;;;;;;5059576;28;20126;-59
2021/06/16 12:15:10;;;;;;;7.13;3.78;;;;;;;;;;5067504;28;20186;-59
2021/06/16 12:17:55;;;;;;;6.07;4.15;;;;;;;;;;5071115;28;20411;-60
2021/06/16 12:20:22;;;;;;;6.97;3.75;;;;;;;;;;5071256;28;20579;-59
2021/06/16 12:22:48;;;;;;;7.45;4.18;;;;;;;;;;5069994;28;20068;-59
2021/06/16 12:25:41;;;;;;;5.75;3.60;;;;;;;;;;5063760;28;20052;-59
2021/06/16 12:28:07;;;;;;;10.23;4.20;;;;;;;;;;5067540;28;20408;-59
2021/06/16 12:30:36;;;;;;;6.05;3.90;;;;;;;;;;5056321;28;20098;-59
2021/06/16 12:33:18;;;;;;;5.40;3.55;;;;;;;;;;5068673;28;20041;-59
2021/06/16 12:36:07;;;;;;;10.57;3.40;;;;;;;;;;5071362;28;20510;-59
2021/06/16 12:38:44;;;;;;;7.43;3.50;;;;;;;;;;5071310;28;20041;-58
2021/06/16 12:41:26;;;;;;;8.82;3.03;;;;;;;;;;5069288;28;20048;-59
2021/06/16 12:43:52;;;;;;;8.05;3.17;;;;;;;;;;5059450;28;20047;-59
2021/06/16 12:46:19;;;;;;;6.70;3.00;;;;;;;;;;5070846;28;20060;-59
2021/06/16 12:48:45;;;;;;;4.50;2.92;;;;;;;;;;5071589;28;20136;-59
2021/06/16 12:51:12;;;;;;;3.92;2.83;;;;;;;;;;5071249;28;20478;-60
2021/06/16 12:53:39;;;;;;;6.38;3.53;;;;;;;;;;5070963;28;20056;-59
2021/06/16 12:56:06;;;;;;;5.13;3.15;;;;;;;;;;5070762;28;20091;-59
2021/06/16 12:58:44;;;;;;;4.47;3.17;;;;;;;;;;5086733;28;20041;-59
2021/06/16 13:01:15;;;;;;;5.43;3.13;;;;;;;;;;5054674;28;20053;-59
2021/06/16 13:03:45;;;;;;;5.95;3.25;;;;;;;;;;5075079;28;20044;-59
2021/06/16 13:06:13;;;;;;;6.35;2.83;;;;;;;;;;5074518;28;20053;-59
2021/06/16 13:08:40;;;;;;;6.00;3.00;;;;;;;;;;5107447;28;20044;-59
2021/06/16 13:11:25;;;;;;;6.97;3.20;;;;;;;;;;5073215;28;20052;-59
2021/06/16 13:14:10;;;;;;;6.13;3.08;;;;;;;;;;5062657;28;20048;-59
2021/06/16 13:16:36;;;;;;;4.50;2.88;;;;;;;;;;5060136;28;20070;-59
2021/06/16 13:19:08;;;;;;;4.00;2.63;;;;;;;;;;5074603;28;20075;-59
2021/06/16 13:21:34;;;;;;;3.80;2.50;;;;;;;;;;5059792;28;20091;-59
2021/06/16 13:24:03;;;;;;;6.88;3.28;;;;;;;;;;5071655;28;20074;-58
2021/06/16 13:26:30;;;;;;;5.22;3.00;;;;;;;;;;5074382;28;20055;-59
2021/06/16 13:28:58;;;;;;;6.35;3.03;;;;;;;;;;5074530;28;20054;-59
2021/06/16 13:31:24;;;;;;;10.85;2.72;;;;;;;;;;5058287;28;20047;-58
2021/06/16 13:33:52;;;;;;;7.75;3.80;;;;;;;;;;5070961;28;20053;-59
2021/06/16 13:36:19;;;;;;;6.20;2.83;;;;;;;;;;5074035;28;20048;-59
2021/06/16 13:38:48;;;;;;;5.57;3.05;;;;;;;;;;5073939;28;20079;-58
2021/06/16 13:41:14;;;;;;;9.07;2.97;;;;;;;;;;5074180;28;20403;-59
2021/06/16 13:43:42;;;;;;;4.70;2.97;;;;;;;;;;5073743;28;20438;-59
2021/06/16 13:46:08;;;;;;;5.38;3.10;;;;;;;;;;5072412;28;20049;-58
2021/06/16 13:48:35;;;;;;;5.05;3.28;;;;;;;;;;5059367;28;20080;-59
2021/06/16 13:51:01;;;;;;;7.30;3.13;;;;;;;;;;5071369;28;20083;-58
2021/06/16 13:53:28;;;;;;;5.20;3.05;;;;;;;;;;5073702;28;20448;-59
2021/06/16 13:55:54;;;;;;;5.18;2.60;;;;;;;;;;5073724;28;20064;-59
2021/06/16 13:58:20;;;;;;;5.40;2.58;;;;;;;;;;5073604;28;20556;-59
2021/06/16 14:00:46;;;;;;;5.00;2.38;;;;;;;;;;5073244;28;20416;-59
2021/06/16 14:03:13;;;;;;;5.88;2.58;;;;;;;;;;5073812;28;20055;-60
2021/06/16 14:05:39;;;;;;;4.50;2.80;;;;;;;;;;5073410;28;20063;-59
2021/06/16 14:08:06;;;;;;;6.40;2.85;;;;;;;;;;5073498;28;20047;-59
2021/06/16 14:10:33;;;;;;;4.65;2.70;;;;;;;;;;5073727;28;20040;-59
2021/06/16 14:13:01;;;;;;;9.98;3.88;;;;;;;;;;5073443;28;20131;-59
2021/06/16 14:15:27;;;;;;;5.18;2.95;;;;;;;;;;5072373;28;20051;-59
2021/06/16 14:17:54;;;;;;;5.20;2.80;;;;;;;;;;5073320;28;20404;-58
2021/06/16 14:20:20;;;;;;;6.25;3.25;;;;;;;;;;5072958;28;20051;-59
2021/06/16 14:22:48;;;;;;;6.00;3.00;;;;;;;;;;5069635;28;20491;-59
2021/06/16 14:25:15;;;;;;;4.88;3.20;;;;;;;;;;5071826;28;20115;-58
2021/06/16 14:27:42;;;;;;;7.55;3.25;;;;;;;;;;5059127;28;20033;-57
2021/06/16 14:30:09;;;;;;;9.05;3.30;;;;;;;;;;5069022;28;20411;-58
2021/06/16 14:32:36;;;;;;;7.70;3.50;;;;;;;;;;5073144;28;20048;-56
2021/06/16 14:35:03;;;;;;;7.60;3.35;;;;;;;;;;5072441;28;20051;-58
2021/06/16 14:37:30;;;;;;;5.93;3.10;;;;;;;;;;5065805;28;20060;-57
2021/06/16 14:39:56;;;;;;;5.57;3.45;;;;;;;;;;5057834;28;20049;-56
2021/06/16 14:42:24;;;;;;;6.60;2.90;;;;;;;;;;5072146;28;20049;-57
2021/06/16 14:44:51;;;;;;;8.95;3.63;;;;;;;;;;5062669;28;20095;-57